createdAt,value
2017-09-16T00:00:02.195Z,96449.66
2017-09-16T00:02:29.644Z,96442.72
2017-09-16T00:04:57.059Z,96443.47
2017-09-16T00:07:24.471Z,96445.55
2017-09-16T00:09:51.945Z,96443.38
2017-09-16T00:12:19.374Z,96439.79
2017-09-16T00:14:46.806Z,96441.03
2017-09-16T00:17:14.246Z,96446.41
2017-09-16T00:19:41.668Z,96439.55
2017-09-16T00:22:09.078Z,96437.77
2017-09-16T00:24:36.548Z,96444.19
2017-09-16T00:27:03.974Z,96438.29
2017-09-16T00:29:31.396Z,96440.50
2017-09-16T00:31:58.834Z,96429.98
2017-09-16T00:34:26.250Z,96433.66
2017-09-16T00:36:53.667Z,96439.55
2017-09-16T00:39:21.147Z,96431.58
2017-09-16T00:41:48.565Z,96432.81
2017-09-16T00:44:15.967Z,96426.95
2017-09-16T00:46:43.420Z,96421.48
2017-09-16T00:49:10.841Z,96419.69
2017-09-16T00:51:38.260Z,96416.39
2017-09-16T00:54:05.839Z,96416.00
2017-09-16T00:56:33.253Z,96411.05
2017-09-16T00:59:00.659Z,96414.21
2017-09-16T01:01:28.093Z,96411.77
2017-09-16T01:03:55.527Z,96404.08
2017-09-16T01:06:22.944Z,96405.45
2017-09-16T01:08:50.420Z,96402.61
2017-09-16T01:11:17.864Z,96399.02
2017-09-16T01:13:45.309Z,96392.61
2017-09-16T01:16:12.737Z,96390.53
2017-09-16T01:18:40.210Z,96390.10
2017-09-16T01:21:07.731Z,96392.84
2017-09-16T01:23:35.260Z,96389.29
2017-09-16T01:26:02.662Z,96391.31
2017-09-16T01:28:30.942Z,96384.77
2017-09-16T01:30:58.380Z,96376.55
2017-09-16T01:33:25.807Z,96372.02
2017-09-16T01:35:53.231Z,96373.81
2017-09-16T01:38:20.680Z,96370.66
2017-09-16T01:40:48.097Z,96368.44
2017-09-16T01:43:15.512Z,96364.23
2017-09-16T01:45:43.044Z,96361.79
2017-09-16T01:48:10.473Z,96367.26
2017-09-16T01:50:37.885Z,96373.16
2017-09-16T01:53:05.314Z,96364.81
2017-09-16T01:55:32.731Z,96369.47
2017-09-16T01:58:00.145Z,96367.55
2017-09-16T02:00:27.582Z,96365.89
2017-09-16T02:02:54.996Z,96366.03
2017-09-16T02:05:22.673Z,96368.62
2017-09-16T02:07:50.124Z,96363.68
2017-09-16T02:10:17.573Z,96363.29
2017-09-16T02:12:44.981Z,96367.13
2017-09-16T02:15:12.450Z,96360.42
2017-09-16T02:17:39.866Z,96373.26
2017-09-16T02:20:07.276Z,96375.05
2017-09-16T02:22:34.695Z,96371.89
2017-09-16T02:25:02.108Z,96372.87
2017-09-16T02:27:29.515Z,96377.27
2017-09-16T02:29:56.966Z,96373.81
2017-09-16T02:32:24.386Z,96377.50
2017-09-16T02:34:51.855Z,96377.78
2017-09-16T02:37:19.274Z,96375.89
2017-09-16T02:39:46.679Z,96368.77
2017-09-16T02:42:14.093Z,96376.42
2017-09-16T02:44:41.532Z,96376.97
2017-09-16T02:47:09.243Z,96377.69
2017-09-16T02:49:36.655Z,96376.31
2017-09-16T02:52:04.066Z,96379.29
2017-09-16T02:54:31.499Z,96377.92
2017-09-16T02:56:58.914Z,96373.16
2017-09-16T02:59:26.391Z,96373.26
2017-09-16T03:01:53.820Z,96367.50
2017-09-16T03:04:21.236Z,96358.86
2017-09-16T03:06:48.670Z,96356.97
2017-09-16T03:09:16.156Z,96355.37
2017-09-16T03:11:43.807Z,96356.18
2017-09-16T03:14:11.269Z,96360.42
2017-09-16T03:16:38.678Z,96351.78
2017-09-16T03:19:06.199Z,96356.02
2017-09-16T03:21:33.623Z,96349.41
2017-09-16T03:24:01.067Z,96351.08
2017-09-16T03:26:28.481Z,96344.95
2017-09-16T03:28:55.948Z,96347.68
2017-09-16T03:31:23.359Z,96338.76
2017-09-16T03:33:50.808Z,96344.95
2017-09-16T03:36:18.261Z,96335.36
2017-09-16T03:38:45.673Z,96338.95
2017-09-16T03:41:13.081Z,96338.52
2017-09-16T03:43:40.535Z,96340.18
2017-09-16T03:46:07.959Z,96334.84
2017-09-16T03:48:35.465Z,96339.89
2017-09-16T03:51:02.924Z,96344.95
2017-09-16T03:53:30.370Z,96338.66
2017-09-16T03:55:57.784Z,96338.81
2017-09-16T03:58:25.226Z,96342.50
2017-09-16T04:00:53.293Z,96337.16
2017-09-16T04:03:20.700Z,96344.00
2017-09-16T04:05:48.130Z,96345.36
2017-09-16T04:08:15.534Z,96344.95
2017-09-16T04:10:42.946Z,96344.00
2017-09-16T04:13:10.415Z,96336.92
2017-09-16T04:15:37.859Z,96337.86
2017-09-16T04:18:05.485Z,96345.13
2017-09-16T04:20:32.953Z,96349.23
2017-09-16T04:23:00.379Z,96346.08
2017-09-16T04:25:27.835Z,96344.70
2017-09-16T04:27:55.300Z,96348.29
2017-09-16T04:30:22.707Z,96345.55
2017-09-16T04:32:50.714Z,96344.19
2017-09-16T04:35:18.167Z,96341.84
2017-09-16T04:37:45.583Z,96343.20
2017-09-16T04:40:13.024Z,96348.97
2017-09-16T04:42:40.487Z,96351.31
2017-09-16T04:45:07.903Z,96353.62
2017-09-16T04:47:35.330Z,96355.42
2017-09-16T04:50:02.798Z,96357.18
2017-09-16T04:52:30.206Z,96360.19
2017-09-16T04:54:57.716Z,96355.66
2017-09-16T04:57:25.190Z,96356.66
2017-09-16T04:59:52.726Z,96355.42
2017-09-16T05:02:20.154Z,96360.23
2017-09-16T05:04:47.608Z,96368.31
2017-09-16T05:07:15.030Z,96370.77
2017-09-16T05:09:42.496Z,96374.79
2017-09-16T05:12:09.920Z,96374.37
2017-09-16T05:14:37.400Z,96369.19
2017-09-16T05:17:04.819Z,96376.58
2017-09-16T05:19:32.314Z,96378.47
2017-09-16T05:21:59.727Z,96376.39
2017-09-16T05:24:27.143Z,96377.00
2017-09-16T05:26:54.585Z,96373.98
2017-09-16T05:29:25.763Z,96381.34
2017-09-16T05:31:53.173Z,96383.19
2017-09-16T05:34:20.653Z,96385.38
2017-09-16T05:36:48.181Z,96387.30
2017-09-16T05:39:15.607Z,96390.84
2017-09-16T05:41:43.056Z,96389.90
2017-09-16T05:44:10.473Z,96395.66
2017-09-16T05:46:37.875Z,96398.95
2017-09-16T05:49:05.296Z,96399.25
2017-09-16T05:51:32.794Z,96393.77
2017-09-16T05:54:00.213Z,96393.22
2017-09-16T05:56:27.751Z,96399.06
2017-09-16T05:58:55.168Z,96395.95
2017-09-16T06:01:22.600Z,96397.32
2017-09-16T06:03:50.036Z,96395.30
2017-09-16T06:06:17.606Z,96396.37
2017-09-16T06:08:45.012Z,96394.11
2017-09-16T06:11:12.434Z,96397.27
2017-09-16T06:13:39.849Z,96393.92
2017-09-16T06:16:07.318Z,96396.00
2017-09-16T06:18:34.842Z,96400.02
2017-09-16T06:21:02.383Z,96398.98
2017-09-16T06:23:29.808Z,96399.17
2017-09-16T06:25:57.351Z,96401.41
2017-09-16T06:28:24.769Z,96401.25
2017-09-16T06:30:52.203Z,96398.22
2017-09-16T06:33:19.648Z,96401.67
2017-09-16T06:35:47.059Z,96401.75
2017-09-16T06:38:14.475Z,96402.48
2017-09-16T06:40:41.925Z,96408.09
2017-09-16T06:43:09.359Z,96405.22
2017-09-16T06:45:36.843Z,96403.14
2017-09-16T06:48:04.291Z,96401.30
2017-09-16T06:50:31.811Z,96406.78
2017-09-16T06:52:59.218Z,96412.70
2017-09-16T06:55:26.688Z,96413.72
2017-09-16T06:57:54.122Z,96411.63
2017-09-16T07:00:21.539Z,96416.26
2017-09-16T07:02:48.984Z,96415.45
2017-09-16T07:05:16.400Z,96414.23
2017-09-16T07:07:43.876Z,96417.91
2017-09-16T07:10:11.324Z,96414.37
2017-09-16T07:12:38.759Z,96423.58
2017-09-16T07:15:06.232Z,96416.84
2017-09-16T07:17:33.654Z,96425.89
2017-09-16T07:20:01.068Z,96421.50
2017-09-16T07:22:28.474Z,96425.38
2017-09-16T07:24:55.950Z,96430.95
2017-09-16T07:27:23.415Z,96429.16
2017-09-16T07:29:50.848Z,96429.71
2017-09-16T07:32:18.327Z,96428.55
2017-09-16T07:34:45.723Z,96429.40
2017-09-16T07:37:13.155Z,96432.56
2017-09-16T07:39:40.623Z,96430.77
2017-09-16T07:42:08.044Z,96424.73
2017-09-16T07:44:35.467Z,96435.01
2017-09-16T07:47:02.918Z,96433.80
2017-09-16T07:49:30.346Z,96436.01
2017-09-16T07:51:57.762Z,96437.38
2017-09-16T07:54:25.288Z,96435.30
2017-09-16T07:56:52.851Z,96432.00
2017-09-16T07:59:20.425Z,96434.87
2017-09-16T08:01:47.930Z,96444.45
2017-09-16T08:04:15.356Z,96443.03
2017-09-16T08:06:42.792Z,96444.17
2017-09-16T08:09:10.226Z,96447.85
2017-09-16T08:11:37.646Z,96443.91
2017-09-16T08:14:05.751Z,96441.87
2017-09-16T08:16:33.199Z,96444.17
2017-09-16T08:19:00.628Z,96439.51
2017-09-16T08:21:28.047Z,96437.91
2017-09-16T08:23:55.513Z,96439.03
2017-09-16T08:26:22.935Z,96440.93
2017-09-16T08:28:50.372Z,96438.69
2017-09-16T08:31:17.803Z,96437.75
2017-09-16T08:33:45.328Z,96436.40
2017-09-16T08:36:12.780Z,96440.93
2017-09-16T08:38:40.213Z,96439.56
2017-09-16T08:41:07.755Z,96433.80
2017-09-16T08:43:35.185Z,96427.14
2017-09-16T08:46:02.704Z,96435.74
2017-09-16T08:48:30.120Z,96427.00
2017-09-16T08:50:57.535Z,96425.63
2017-09-16T08:53:24.953Z,96424.40
2017-09-16T08:55:52.374Z,96421.47
2017-09-16T08:58:19.788Z,96419.39
2017-09-16T09:00:47.329Z,96419.58
2017-09-16T09:03:14.742Z,96424.16
2017-09-16T09:05:42.172Z,96422.12
2017-09-16T09:08:09.631Z,96424.63
2017-09-16T09:10:37.052Z,96417.73
2017-09-16T09:13:04.474Z,96416.42
2017-09-16T09:15:31.939Z,96419.21
2017-09-16T09:17:59.360Z,96414.02
2017-09-16T09:20:26.771Z,96416.42
2017-09-16T09:22:54.202Z,96414.68
2017-09-16T09:25:21.603Z,96419.27
2017-09-16T09:27:49.095Z,96408.31
2017-09-16T09:30:16.558Z,96402.41
2017-09-16T09:32:44.014Z,96399.62
2017-09-16T09:35:11.451Z,96406.17
2017-09-16T09:37:38.908Z,96401.13
2017-09-16T09:40:06.322Z,96404.54
2017-09-16T09:42:33.744Z,96400.75
2017-09-16T09:45:01.246Z,96404.30
2017-09-16T09:47:28.668Z,96396.33
2017-09-16T09:49:56.096Z,96391.22
2017-09-16T09:52:23.551Z,96389.75
2017-09-16T09:54:50.962Z,96386.88
2017-09-16T09:57:18.463Z,96389.59
2017-09-16T09:59:45.886Z,96389.06
2017-09-16T10:02:13.298Z,96392.33
2017-09-16T10:04:40.718Z,96386.75
2017-09-16T10:07:08.158Z,96389.30
2017-09-16T10:09:35.632Z,96388.64
2017-09-16T10:12:03.046Z,96384.53
2017-09-16T10:14:30.522Z,96384.11
2017-09-16T10:16:57.942Z,96381.37
2017-09-16T10:19:25.345Z,96378.34
2017-09-16T10:21:52.790Z,96377.16
2017-09-16T10:24:20.203Z,96377.45
2017-09-16T10:26:47.625Z,96376.19
2017-09-16T10:29:15.089Z,96379.19
2017-09-16T10:31:42.515Z,96376.55
2017-09-16T10:34:09.935Z,96374.23
2017-09-16T10:36:37.380Z,96367.25
2017-09-16T10:39:04.798Z,96367.25
2017-09-16T10:41:32.215Z,96370.18
2017-09-16T10:43:59.710Z,96363.47
2017-09-16T10:46:27.134Z,96366.59
2017-09-16T10:48:54.542Z,96358.36
2017-09-16T10:51:21.964Z,96363.42
2017-09-16T10:53:49.386Z,96360.31
2017-09-16T10:56:16.794Z,96358.80
2017-09-16T10:58:44.232Z,96359.89
2017-09-16T11:01:11.661Z,96356.63
2017-09-16T11:03:39.088Z,96353.84
2017-09-16T11:06:06.521Z,96353.56
2017-09-16T11:08:33.932Z,96352.38
2017-09-16T11:11:01.349Z,96355.41
2017-09-16T11:13:28.771Z,96355.98
2017-09-16T11:15:56.181Z,96357.91
2017-09-16T11:18:23.708Z,96356.67
2017-09-16T11:20:51.158Z,96354.22
2017-09-16T11:23:18.631Z,96352.72
2017-09-16T11:25:46.043Z,96356.41
2017-09-16T11:28:13.480Z,96349.74
2017-09-16T11:30:40.906Z,96345.88
2017-09-16T11:33:08.320Z,96345.73
2017-09-16T11:35:35.765Z,96340.11
2017-09-16T11:38:03.195Z,96342.00
2017-09-16T11:40:30.600Z,96336.81
2017-09-16T11:42:58.176Z,96337.13
2017-09-16T11:45:25.641Z,96323.83
2017-09-16T11:47:53.056Z,96325.18
2017-09-16T11:50:20.508Z,96319.86
2017-09-16T11:52:47.917Z,96323.83
2017-09-16T11:55:15.546Z,96319.33
2017-09-16T11:57:42.964Z,96319.01
2017-09-16T12:00:11.337Z,96317.63
2017-09-16T12:02:38.771Z,96319.44
2017-09-16T12:05:06.248Z,96322.30
2017-09-16T12:07:33.747Z,96322.59
2017-09-16T12:10:01.215Z,96313.14
2017-09-16T12:12:28.657Z,96313.19
2017-09-16T12:14:56.063Z,96315.51
2017-09-16T12:17:23.483Z,96311.41
2017-09-16T12:19:50.936Z,96312.59
2017-09-16T12:22:18.358Z,96314.52
2017-09-16T12:24:45.791Z,96312.06
2017-09-16T12:27:13.356Z,96309.89
2017-09-16T12:29:40.787Z,96309.74
2017-09-16T12:32:08.213Z,96306.02
2017-09-16T12:34:35.670Z,96310.98
2017-09-16T12:37:03.081Z,96310.80
2017-09-16T12:39:30.504Z,96312.21
2017-09-16T12:41:57.940Z,96305.55
2017-09-16T12:44:25.421Z,96302.91
2017-09-16T12:46:52.850Z,96298.70
2017-09-16T12:49:20.380Z,96303.23
2017-09-16T12:51:47.794Z,96301.97
2017-09-16T12:54:15.203Z,96304.70
2017-09-16T12:56:42.655Z,96304.00
2017-09-16T12:59:10.079Z,96300.07
2017-09-16T13:01:37.493Z,96303.63
2017-09-16T13:04:04.951Z,96310.89
2017-09-16T13:06:32.382Z,96314.58
2017-09-16T13:08:59.787Z,96317.21
2017-09-16T13:11:27.231Z,96321.32
2017-09-16T13:13:54.639Z,96318.82
2017-09-16T13:16:22.059Z,96320.05
2017-09-16T13:18:49.510Z,96325.95
2017-09-16T13:21:16.926Z,96324.06
2017-09-16T13:23:44.351Z,96323.45
2017-09-16T13:26:11.791Z,96327.17
2017-09-16T13:28:39.305Z,96326.41
2017-09-16T13:31:06.728Z,96328.02
2017-09-16T13:33:34.234Z,96335.10
2017-09-16T13:36:01.652Z,96340.31
2017-09-16T13:38:29.086Z,96338.89
2017-09-16T13:40:56.560Z,96339.59
2017-09-16T13:43:23.985Z,96340.53
2017-09-16T13:45:51.429Z,96340.97
2017-09-16T13:48:18.868Z,96332.80
2017-09-16T13:50:46.305Z,96329.83
2017-09-16T13:53:13.730Z,96323.77
2017-09-16T13:55:41.166Z,96324.02
2017-09-16T13:58:08.572Z,96328.36
2017-09-16T14:00:35.984Z,96330.10
2017-09-16T14:03:03.448Z,96316.32
2017-09-16T14:05:30.907Z,96320.56
2017-09-16T14:07:58.327Z,96321.41
2017-09-16T14:10:25.761Z,96322.22
2017-09-16T14:12:53.181Z,96322.80
2017-09-16T14:15:20.604Z,96326.24
2017-09-16T14:17:48.018Z,96317.31
2017-09-16T14:20:15.451Z,96321.70
2017-09-16T14:22:42.868Z,96310.89
2017-09-16T14:25:10.293Z,96312.40
2017-09-16T14:27:37.771Z,96311.13
2017-09-16T14:30:05.955Z,96312.72
2017-09-16T14:32:33.414Z,96306.67
2017-09-16T14:35:00.822Z,96314.52
2017-09-16T14:37:28.304Z,96309.89
2017-09-16T14:39:55.743Z,96316.50
2017-09-16T14:42:23.171Z,96313.06
2017-09-16T14:44:50.580Z,96319.77
2017-09-16T14:47:18.197Z,96325.67
2017-09-16T14:49:45.631Z,96324.82
2017-09-16T14:52:13.052Z,96327.56
2017-09-16T14:54:40.476Z,96332.52
2017-09-16T14:57:07.963Z,96342.09
2017-09-16T14:59:35.401Z,96341.39
2017-09-16T15:02:03.220Z,96347.58
2017-09-16T15:04:30.650Z,96350.55
2017-09-16T15:06:58.079Z,96353.19
2017-09-16T15:09:25.521Z,96350.84
2017-09-16T15:11:52.940Z,96355.93
2017-09-16T15:14:20.348Z,96358.37
2017-09-16T15:16:47.796Z,96357.30
2017-09-16T15:19:15.200Z,96355.93
2017-09-16T15:21:42.619Z,96364.14
2017-09-16T15:24:10.082Z,96368.78
2017-09-16T15:26:37.496Z,96367.97
2017-09-16T15:29:04.925Z,96368.78
2017-09-16T15:31:32.356Z,96375.05
2017-09-16T15:33:59.785Z,96374.49
2017-09-16T15:36:27.212Z,96379.58
2017-09-16T15:38:54.708Z,96380.29
2017-09-16T15:41:22.172Z,96388.19
2017-09-16T15:43:49.602Z,96387.84
2017-09-16T15:46:17.035Z,96387.84
2017-09-16T15:48:44.452Z,96398.36
2017-09-16T15:51:11.874Z,96394.06
2017-09-16T15:56:13.241Z,96403.75
2017-09-16T15:58:40.669Z,96415.19
2017-09-16T16:01:08.199Z,96414.20
2017-09-16T16:03:35.607Z,96425.48
2017-09-16T16:06:03.037Z,96428.74
2017-09-16T16:08:30.449Z,96428.88
2017-09-16T16:10:57.866Z,96430.34
2017-09-16T16:13:25.313Z,96429.85
2017-09-16T16:15:52.729Z,96431.16
2017-09-16T16:18:20.156Z,96431.45
2017-09-16T16:20:47.609Z,96436.98
2017-09-16T16:23:15.043Z,96433.03
2017-09-16T16:25:42.459Z,96438.93
2017-09-16T16:28:09.923Z,96437.91
2017-09-16T16:30:37.343Z,96440.41
2017-09-16T16:33:04.758Z,96443.44
2017-09-16T16:35:32.230Z,96449.28
2017-09-16T16:37:59.661Z,96452.39
2017-09-16T16:40:27.348Z,96459.10
2017-09-16T16:42:54.778Z,96467.16
2017-09-16T16:45:22.188Z,96471.08
2017-09-16T16:47:49.613Z,96478.16
2017-09-16T16:50:17.079Z,96485.56
2017-09-16T16:52:44.510Z,96491.86
2017-09-16T16:55:11.930Z,96501.16
2017-09-16T16:57:39.361Z,96508.55
2017-09-16T17:00:06.842Z,96509.00
2017-09-16T17:02:34.378Z,96506.39
2017-09-16T17:05:01.877Z,96503.84
2017-09-16T17:07:29.286Z,96505.00
2017-09-16T17:09:56.774Z,96508.45
2017-09-16T17:12:24.219Z,96514.53
2017-09-16T17:14:51.648Z,96513.36
2017-09-16T17:17:19.054Z,96518.27
2017-09-16T17:19:46.535Z,96512.77
2017-09-16T17:22:14.002Z,96511.80
2017-09-16T17:24:41.406Z,96515.96
2017-09-16T17:27:08.891Z,96519.41
2017-09-16T17:29:36.296Z,96514.36
2017-09-16T17:32:03.698Z,96516.80
2017-09-16T17:34:31.117Z,96515.17
2017-09-16T17:36:58.523Z,96521.20
2017-09-16T17:39:25.946Z,96525.60
2017-09-16T17:41:53.388Z,96522.02
2017-09-16T17:44:20.932Z,96521.20
2017-09-16T17:46:48.346Z,96525.73
2017-09-16T17:49:15.785Z,96530.42
2017-09-16T17:51:43.224Z,96527.39
2017-09-16T17:54:10.661Z,96519.05
2017-09-16T17:56:38.165Z,96523.16
2017-09-16T17:59:05.615Z,96521.36
2017-09-16T18:01:33.050Z,96526.31
2017-09-16T18:04:00.478Z,96531.80
2017-09-16T18:06:27.914Z,96531.80
2017-09-16T18:08:55.337Z,96534.30
2017-09-16T18:11:22.778Z,96538.94
2017-09-16T18:13:50.189Z,96543.59
2017-09-16T18:16:17.670Z,96543.91
2017-09-16T18:18:45.128Z,96538.06
2017-09-16T18:21:12.544Z,96545.43
2017-09-16T18:23:39.965Z,96549.30
2017-09-16T18:26:07.414Z,96562.71
2017-09-16T18:28:34.814Z,96569.50
2017-09-16T18:31:02.257Z,96573.70
2017-09-16T18:33:30.039Z,96579.55
2017-09-16T18:35:57.454Z,96570.81
2017-09-16T18:38:24.877Z,96569.02
2017-09-16T18:40:52.310Z,96570.94
2017-09-16T18:43:19.721Z,96578.18
2017-09-16T18:45:47.131Z,96575.05
2017-09-16T18:48:14.567Z,96582.29
2017-09-16T18:50:41.986Z,96579.68
2017-09-16T18:53:09.398Z,96580.27
2017-09-16T18:55:36.862Z,96582.00
2017-09-16T18:58:05.270Z,96582.55
2017-09-16T19:00:32.675Z,96582.29
2017-09-16T19:03:00.113Z,96585.09
2017-09-16T19:05:27.529Z,96577.59
2017-09-16T19:07:54.952Z,96579.75
2017-09-16T19:10:22.493Z,96583.73
2017-09-16T19:12:49.904Z,96585.03
2017-09-16T19:15:17.338Z,96592.59
2017-09-16T19:17:44.759Z,96589.84
2017-09-16T19:20:12.260Z,96590.92
2017-09-16T19:22:39.676Z,96588.13
2017-09-16T19:25:07.113Z,96588.84
2017-09-16T19:27:34.533Z,96588.26
2017-09-16T19:30:01.967Z,96594.03
2017-09-16T19:32:29.411Z,96595.11
2017-09-16T19:34:56.839Z,96595.47
2017-09-16T19:37:24.252Z,96592.14
2017-09-16T19:39:51.681Z,96588.26
2017-09-16T19:42:19.104Z,96594.81
2017-09-16T19:44:46.527Z,96593.19
2017-09-16T19:47:13.965Z,96593.50
2017-09-16T19:49:41.376Z,96594.03
2017-09-16T19:52:08.796Z,96596.41
2017-09-16T19:54:36.298Z,96598.14
2017-09-16T19:57:03.801Z,96591.36
2017-09-16T19:59:31.205Z,96597.98
2017-09-16T20:01:58.654Z,96600.35
2017-09-16T20:04:26.171Z,96590.11
2017-09-16T20:06:53.595Z,96593.66
2017-09-16T20:09:21.115Z,96597.12
2017-09-16T20:11:48.524Z,96600.70
2017-09-16T20:14:15.946Z,96597.48
2017-09-16T20:16:43.395Z,96598.14
2017-09-16T20:19:10.802Z,96597.72
2017-09-16T20:21:38.226Z,96597.29
2017-09-16T20:24:05.673Z,96602.44
2017-09-16T20:26:33.278Z,96604.91
2017-09-16T20:29:00.698Z,96606.70
2017-09-16T20:31:28.125Z,96599.08
2017-09-16T20:33:55.570Z,96598.14
2017-09-16T20:36:22.992Z,96598.91
2017-09-16T20:38:50.539Z,96606.47
2017-09-16T20:41:17.942Z,96606.05
2017-09-16T20:43:45.472Z,96599.70
2017-09-16T20:46:12.907Z,96595.16
2017-09-16T20:48:40.380Z,96597.05
2017-09-16T20:51:07.809Z,96605.50
2017-09-16T20:53:35.255Z,96603.03
2017-09-16T20:56:02.665Z,96604.03
2017-09-16T20:58:30.077Z,96604.82
2017-09-16T21:00:57.675Z,96601.72
2017-09-16T21:03:25.084Z,96604.33
2017-09-16T21:05:52.512Z,96601.59
2017-09-16T21:08:19.987Z,96605.27
2017-09-16T21:10:47.404Z,96611.30
2017-09-16T21:13:14.826Z,96615.09
2017-09-16T21:15:42.282Z,96612.12
2017-09-16T21:18:09.701Z,96607.20
2017-09-16T21:20:37.112Z,96613.20
2017-09-16T21:23:04.575Z,96609.87
2017-09-16T21:25:31.985Z,96606.52
2017-09-16T21:27:59.480Z,96606.71
2017-09-16T21:30:26.941Z,96607.23
2017-09-16T21:32:54.358Z,96606.58
2017-09-16T21:35:21.762Z,96607.85
2017-09-16T21:37:49.231Z,96602.08
2017-09-16T21:40:16.643Z,96605.41
2017-09-16T21:42:44.113Z,96605.83
2017-09-16T21:45:11.605Z,96599.38
2017-09-16T21:47:39.035Z,96597.72
2017-09-16T21:50:07.173Z,96608.44
2017-09-16T21:52:34.609Z,96605.27
2017-09-16T21:55:02.056Z,96606.55
2017-09-16T21:57:29.470Z,96601.30
2017-09-16T21:59:56.973Z,96600.45
2017-09-16T22:02:24.405Z,96595.23
2017-09-16T22:04:51.816Z,96591.16
2017-09-16T22:07:19.263Z,96585.58
2017-09-16T22:09:46.681Z,96579.39
2017-09-16T22:12:14.085Z,96573.80
2017-09-16T22:14:41.550Z,96566.58
2017-09-16T22:17:08.968Z,96563.42
2017-09-16T22:19:36.376Z,96571.96
2017-09-16T22:22:03.800Z,96580.86
2017-09-16T22:24:31.219Z,96587.05
2017-09-16T22:26:58.647Z,96577.08
2017-09-16T22:29:26.099Z,96577.79
2017-09-16T22:31:53.571Z,96578.97
2017-09-16T22:34:20.971Z,96576.66
2017-09-16T22:36:48.423Z,96581.18
2017-09-16T22:39:15.872Z,96580.99
2017-09-16T22:41:43.291Z,96581.84
2017-09-16T22:44:10.765Z,96590.34
2017-09-16T22:46:38.221Z,96587.02
2017-09-16T22:49:05.627Z,96584.38
2017-09-16T22:51:33.068Z,96584.44
2017-09-16T22:54:00.496Z,96580.47
2017-09-16T22:56:27.912Z,96585.81
2017-09-16T22:58:55.374Z,96582.00
2017-09-16T23:01:22.823Z,96582.12
2017-09-16T23:03:50.242Z,96580.76
2017-09-16T23:06:17.690Z,96584.86
2017-09-16T23:08:45.218Z,96581.28
2017-09-16T23:11:12.666Z,96580.20
2017-09-16T23:13:40.167Z,96582.42
2017-09-16T23:16:07.590Z,96581.18
2017-09-16T23:18:35.009Z,96585.58
2017-09-16T23:21:02.431Z,96585.03
2017-09-16T23:23:29.861Z,96581.05
2017-09-16T23:25:57.286Z,96582.00
2017-09-16T23:28:24.764Z,96582.55
2017-09-16T23:30:52.172Z,96583.50
2017-09-16T23:33:19.596Z,96579.26
2017-09-16T23:35:47.071Z,96582.23
2017-09-16T23:38:14.494Z,96580.76
2017-09-16T23:40:41.920Z,96583.50
2017-09-16T23:43:09.371Z,96582.94
2017-09-16T23:45:36.780Z,96577.89
2017-09-16T23:48:04.206Z,96579.68
2017-09-16T23:50:31.857Z,96577.47
2017-09-16T23:52:59.286Z,96578.44
2017-09-16T23:55:26.682Z,96583.50
2017-09-16T23:57:54.129Z,96577.30
